| time (UTC) | temp F | wind direction | speed MPH | gust MPH | rain 1hr in | rain 24hr in | rain mn in | humidity % | barometer mb |
| 20260507172139 | 67 | 29 | 3.0 | 7.0 | 0.00 | 0.00 | 0.00 | 90 | 1014.2 |
| 20260507172011 | 67 | 33 | 3.0 | 9.0 | 0.00 | 0.00 | 0.00 | 90 | 1014.2 |
| 20260507171639 | 66 | 13 | 5.0 | 9.0 | 0.00 | 0.00 | 0.00 | 90 | 1014.2 |
| 20260507171139 | 65 | 70 | 1.0 | 3.0 | 0.00 | 0.00 | 0.00 | 89 | 1014.1 |
| 20260507170639 | 65 | 72 | 2.0 | 3.0 | 0.00 | 0.00 | 0.00 | 89 | 1014.0 |
| 20260507170139 | 64 | 40 | 6.0 | 8.0 | 0.00 | 0.00 | 0.00 | 90 | 1014.0 |
| 20260507165639 | 64 | 30 | 3.0 | 5.0 | 0.00 | 0.00 | 0.00 | 90 | 1014.0 |
| 20260507165504 | 63 | 26 | 3.0 | 5.0 | 0.00 | 0.00 | 0.00 | 90 | 1014.0 |
| 20260507165139 | 63 | 11 | 3.0 | 5.0 | 0.00 | 0.00 | 0.00 | 91 | 1014.0 |
| 20260507164639 | 63 | 52 | 2.0 | 5.0 | 0.00 | 0.00 | 0.00 | 91 | 1013.9 |
| 20260507164504 | 63 | 35 | 2.0 | 5.0 | 0.00 | 0.00 | 0.00 | 91 | 1013.9 |
| 20260507164139 | 62 | 53 | 3.0 | 5.0 | 0.00 | 0.00 | 0.00 | 91 | 1013.9 |
| 20260507164010 | 62 | 48 | 3.0 | 5.0 | 0.00 | 0.00 | 0.00 | 91 | 1013.9 |
| 20260507163639 | 62 | 47 | 2.0 | 3.0 | 0.00 | 0.00 | 0.00 | 91 | 1013.9 |
| 20260507163139 | 62 | 40 | 2.0 | 3.0 | 0.00 | 0.00 | 0.00 | 91 | 1013.9 |
| 20260507162639 | 62 | 46 | 2.0 | 3.0 | 0.00 | 0.00 | 0.00 | 91 | 1013.8 |
| 20260507162139 | 62 | 80 | 2.0 | 3.0 | 0.00 | 0.00 | 0.00 | 91 | 1013.7 |
| 20260507161639 | 62 | 34 | 2.0 | 3.0 | 0.00 | 0.00 | 0.00 | 90 | 1013.7 |
| 20260507161139 | 62 | 60 | 2.0 | 2.0 | 0.00 | 0.00 | 0.00 | 90 | 1013.6 |
| 20260507161010 | 62 | 60 | 2.0 | 3.0 | 0.00 | 0.00 | 0.00 | 90 | 1013.6 |
| 20260507160639 | 62 | 67 | 3.0 | 3.0 | 0.00 | 0.00 | 0.00 | 90 | 1013.5 |
| 20260507160139 | 62 | 57 | 3.0 | 5.0 | 0.00 | 0.00 | 0.00 | 89 | 1013.5 |
| 20260507160004 | 62 | 60 | 2.0 | 5.0 | 0.00 | 0.00 | 0.00 | 89 | 1013.4 |
| 20260507155639 | 62 | 60 | 3.0 | 5.0 | 0.00 | 0.00 | 0.00 | 89 | 1013.4 |
| 20260507155139 | 62 | 50 | 3.0 | 5.0 | 0.00 | 0.00 | 0.00 | 89 | 1013.4 |
| 20260507154639 | 62 | 29 | 2.0 | 3.0 | 0.00 | 0.00 | 0.00 | 89 | 1013.4 |
| 20260507154139 | 63 | 60 | 2.0 | 2.0 | 0.00 | 0.00 | 0.00 | 89 | 1013.4 |
| 20260507153639 | 63 | 60 | 2.0 | 3.0 | 0.00 | 0.00 | 0.00 | 88 | 1013.3 |
| 20260507153139 | 63 | 74 | 2.0 | 3.0 | 0.00 | 0.00 | 0.00 | 88 | 1013.2 |
| 20260507153011 | 63 | 73 | 2.0 | 5.0 | 0.00 | 0.00 | 0.00 | 88 | 1013.1 |
| 20260507152639 | 63 | 79 | 2.0 | 5.0 | 0.00 | 0.00 | 0.00 | 87 | 1013.2 |
| 20260507152139 | 63 | 57 | 1.0 | 1.0 | 0.00 | 0.00 | 0.00 | 87 | 1013.2 |
| 20260507152010 | 63 | 59 | 1.0 | 3.0 | 0.00 | 0.00 | 0.00 | 87 | 1013.2 |
| 20260507151639 | 64 | 62 | 2.0 | 3.0 | 0.00 | 0.00 | 0.00 | 87 | 1013.1 |
| 20260507151504 | 64 | 62 | 1.0 | 3.0 | 0.00 | 0.00 | 0.00 | 87 | 1013.1 |
| 20260507151139 | 64 | 6 | 0.0 | 0.0 | 0.00 | 0.00 | 0.00 | 87 | 1013.1 |
| 20260507150639 | 64 | 6 | 1.0 | 2.0 | 0.00 | 0.00 | 0.00 | 87 | 1013.0 |
| 20260507150139 | 64 | 21 | 1.0 | 2.0 | 0.00 | 0.00 | 0.00 | 87 | 1013.0 |
| 20260507150005 | 64 | 21 | 1.0 | 2.0 | 0.00 | 0.00 | 0.00 | 87 | 1013.0 |
| 20260507145639 | 65 | 21 | 0.0 | 0.0 | 0.00 | 0.00 | 0.00 | 87 | 1012.9 |
| 20260507145139 | 65 | 21 | 0.0 | 1.0 | 0.00 | 0.00 | 0.00 | 86 | 1012.9 |
| 20260507144639 | 65 | 21 | 1.0 | 1.0 | 0.00 | 0.00 | 0.00 | 86 | 1013.0 |
| 20260507144504 | 65 | 21 | 1.0 | 3.0 | 0.00 | 0.00 | 0.00 | 87 | 1013.0 |
| 20260507144139 | 65 | 5 | 1.0 | 3.0 | 0.00 | 0.00 | 0.00 | 87 | 1013.0 |
| 20260507143639 | 65 | 5 | 1.0 | 2.0 | 0.00 | 0.00 | 0.00 | 86 | 1012.9 |
| 20260507143504 | 65 | 352 | 0.0 | 2.0 | 0.00 | 0.00 | 0.00 | 86 | 1013.0 |
| 20260507143139 | 65 | 341 | 1.0 | 2.0 | 0.00 | 0.00 | 0.00 | 86 | 1013.0 |
| 20260507142639 | 65 | 22 | 3.0 | 7.0 | 0.00 | 0.00 | 0.00 | 86 | 1012.8 |
| 20260507142505 | 65 | 25 | 3.0 | 7.0 | 0.00 | 0.00 | 0.00 | 86 | 1012.8 |
| 20260507142139 | 65 | 44 | 2.0 | 6.0 | 0.00 | 0.00 | 0.00 | 85 | 1012.8 |
| 20260507142010 | 65 | 53 | 2.0 | 6.0 | 0.00 | 0.00 | 0.00 | 85 | 1012.8 |
| 20260507141639 | 65 | 69 | 3.0 | 5.0 | 0.00 | 0.00 | 0.00 | 85 | 1012.8 |
| 20260507141504 | 65 | 64 | 3.0 | 7.0 | 0.00 | 0.00 | 0.00 | 85 | 1012.8 |
| 20260507141139 | 65 | 73 | 5.0 | 7.0 | 0.00 | 0.00 | 0.00 | 85 | 1012.8 |
| 20260507141010 | 65 | 77 | 5.0 | 8.0 | 0.00 | 0.00 | 0.00 | 85 | 1012.8 |
| 20260507140639 | 65 | 71 | 3.0 | 7.0 | 0.00 | 0.00 | 0.00 | 86 | 1012.8 |
| 20260507140139 | 65 | 37 | 2.0 | 5.0 | 0.00 | 0.00 | 0.00 | 86 | 1013.0 |
| 20260507140006 | 65 | 39 | 3.0 | 5.0 | 0.00 | 0.00 | 0.00 | 86 | 1013.0 |
| 20260507135639 | 65 | 51 | 3.0 | 5.0 | 0.00 | 0.00 | 0.00 | 86 | 1012.9 |
| 20260507135504 | 65 | 67 | 2.0 | 6.0 | 0.00 | 0.00 | 0.00 | 86 | 1012.9 |
| 20260507135139 | 65 | 62 | 3.0 | 6.0 | 0.00 | 0.00 | 0.00 | 85 | 1012.9 |
| 20260507134639 | 64 | 73 | 5.0 | 7.0 | 0.00 | 0.00 | 0.00 | 86 | 1012.9 |
| 20260507134504 | 64 | 77 | 2.0 | 7.0 | 0.00 | 0.00 | 0.00 | 86 | 1012.9 |
| 20260507134139 | 64 | 64 | 3.0 | 3.0 | 0.00 | 0.00 | 0.00 | 86 | 1012.9 |
| 20260507134011 | 64 | 66 | 3.0 | 5.0 | 0.00 | 0.00 | 0.00 | 86 | 1012.9 |
| 20260507133639 | 64 | 73 | 2.0 | 3.0 | 0.00 | 0.00 | 0.00 | 86 | 1012.9 |
| 20260507133138 | 64 | 74 | 3.0 | 5.0 | 0.00 | 0.00 | 0.00 | 85 | 1012.9 |
| 20260507132639 | 64 | 82 | 3.0 | 3.0 | 0.00 | 0.00 | 0.00 | 85 | 1012.9 |
| 20260507132138 | 64 | 54 | 1.0 | 3.0 | 0.00 | 0.00 | 0.00 | 86 | 1013.1 |
| 20260507132011 | 64 | 38 | 3.0 | 5.0 | 0.00 | 0.00 | 0.00 | 86 | 1013.0 |
| 20260507131639 | 64 | 31 | 3.0 | 3.0 | 0.00 | 0.00 | 0.00 | 86 | 1013.0 |
| 20260507131504 | 64 | 32 | 3.0 | 5.0 | 0.00 | 0.00 | 0.00 | 87 | 1013.1 |
| 20260507131138 | 64 | 24 | 3.0 | 3.0 | 0.00 | 0.00 | 0.00 | 87 | 1013.0 |
| 20260507130638 | 64 | 73 | 2.0 | 3.0 | 0.00 | 0.00 | 0.00 | 86 | 1013.0 |
| 20260507130138 | 64 | 19 | 2.0 | 7.0 | 0.00 | 0.00 | 0.00 | 86 | 1012.9 |
| 20260507130005 | 64 | 23 | 1.0 | 3.0 | 0.00 | 0.00 | 0.00 | 86 | 1012.9 |
| 20260507125638 | 64 | 60 | 3.0 | 3.0 | 0.00 | 0.00 | 0.00 | 86 | 1012.9 |
| 20260507125138 | 64 | 73 | 3.0 | 5.0 | 0.00 | 0.00 | 0.00 | 86 | 1012.9 |
| 20260507125011 | 64 | 70 | 3.0 | 5.0 | 0.00 | 0.00 | 0.00 | 86 | 1012.9 |
| 20260507124638 | 64 | 69 | 2.0 | 5.0 | 0.00 | 0.00 | 0.00 | 87 | 1013.1 |
| 20260507124138 | 64 | 72 | 3.0 | 5.0 | 0.00 | 0.00 | 0.00 | 88 | 1013.1 |
| 20260507124010 | 64 | 77 | 3.0 | 5.0 | 0.00 | 0.00 | 0.00 | 88 | 1013.1 |
| 20260507123638 | 64 | 84 | 1.0 | 3.0 | 0.00 | 0.00 | 0.00 | 88 | 1013.0 |
| 20260507123504 | 64 | 78 | 1.0 | 3.0 | 0.00 | 0.00 | 0.00 | 88 | 1013.0 |
| 20260507123138 | 64 | 55 | 1.0 | 2.0 | 0.00 | 0.00 | 0.00 | 88 | 1013.1 |
| 20260507122638 | 64 | 55 | 1.0 | 2.0 | 0.00 | 0.00 | 0.00 | 88 | 1013.0 |
| 20260507122138 | 65 | 54 | 2.0 | 3.0 | 0.00 | 0.00 | 0.00 | 88 | 1013.1 |
| 20260507121638 | 65 | 34 | 2.0 | 2.0 | 0.00 | 0.00 | 0.00 | 87 | 1013.2 |
| 20260507121504 | 65 | 34 | 1.0 | 3.0 | 0.00 | 0.00 | 0.00 | 87 | 1013.2 |
| 20260507121138 | 65 | 34 | 1.0 | 2.0 | 0.00 | 0.00 | 0.00 | 88 | 1013.2 |
| 20260507121011 | 65 | 34 | 1.0 | 2.0 | 0.00 | 0.00 | 0.00 | 88 | 1013.2 |
| 20260507120638 | 65 | 34 | 0.0 | 1.0 | 0.00 | 0.00 | 0.00 | 88 | 1013.2 |
| 20260507120138 | 65 | 15 | 1.0 | 3.0 | 0.00 | 0.00 | 0.00 | 88 | 1013.3 |
| 20260507120005 | 65 | 15 | 1.0 | 3.0 | 0.00 | 0.00 | 0.00 | 88 | 1013.3 |
| 20260507115638 | 65 | 5 | 2.0 | 3.0 | 0.00 | 0.00 | 0.00 | 88 | 1013.3 |
| 20260507115138 | 66 | 23 | 2.0 | 3.0 | 0.00 | 0.00 | 0.00 | 88 | 1013.2 |
| 20260507114638 | 66 | 21 | 5.0 | 6.0 | 0.00 | 0.00 | 0.00 | 88 | 1013.3 |
| 20260507114504 | 66 | 10 | 3.0 | 6.0 | 0.00 | 0.00 | 0.00 | 88 | 1013.3 |
| 20260507114138 | 66 | 76 | 2.0 | 3.0 | 0.00 | 0.00 | 0.00 | 88 | 1013.3 |
| 20260507114010 | 66 | 85 | 3.0 | 5.0 | 0.00 | 0.00 | 0.00 | 88 | 1013.3 |
| 20260507113638 | 66 | 354 | 2.0 | 3.0 | 0.00 | 0.00 | 0.00 | 88 | 1013.5 |
| 20260507113503 | 66 | 10 | 3.0 | 5.0 | 0.00 | 0.00 | 0.00 | 88 | 1013.5 |
| 20260507113138 | 66 | 1 | 3.0 | 5.0 | 0.00 | 0.00 | 0.00 | 88 | 1013.4 |
| 20260507112638 | 66 | 37 | 2.0 | 3.0 | 0.00 | 0.00 | 0.00 | 89 | 1013.5 |
| 20260507112138 | 66 | 52 | 3.0 | 7.0 | 0.00 | 0.00 | 0.00 | 89 | 1013.4 |
| 20260507111638 | 66 | 34 | 5.0 | 7.0 | 0.00 | 0.00 | 0.00 | 89 | 1013.5 |
| 20260507111138 | 66 | 58 | 5.0 | 7.0 | 0.00 | 0.00 | 0.00 | 90 | 1013.5 |
| 20260507111010 | 66 | 37 | 7.0 | 10.0 | 0.00 | 0.00 | 0.00 | 90 | 1013.5 |
| 20260507110638 | 66 | 43 | 6.0 | 7.0 | 0.00 | 0.00 | 0.00 | 90 | 1013.6 |
| 20260507110505 | 66 | 37 | 5.0 | 9.0 | 0.00 | 0.00 | 0.00 | 90 | 1013.6 |
| 20260507110138 | 66 | 16 | 5.0 | 8.0 | 0.00 | 0.00 | 0.00 | 90 | 1013.6 |
| 20260507105638 | 67 | 16 | 3.0 | 5.0 | 0.00 | 0.00 | 0.00 | 91 | 1013.8 |
| 20260507105138 | 67 | 346 | 3.0 | 5.0 | 0.00 | 0.00 | 0.00 | 91 | 1013.9 |
| 20260507105011 | 67 | 353 | 3.0 | 5.0 | 0.00 | 0.00 | 0.00 | 91 | 1013.8 |
| 20260507104638 | 67 | 10 | 3.0 | 5.0 | 0.00 | 0.00 | 0.00 | 91 | 1013.8 |
| 20260507104138 | 67 | 2 | 3.0 | 5.0 | 0.00 | 0.00 | 0.00 | 91 | 1013.8 |
| 20260507104012 | 67 | 7 | 5.0 | 8.0 | 0.00 | 0.00 | 0.00 | 91 | 1013.8 |
| 20260507103638 | 67 | 45 | 3.0 | 3.0 | 0.00 | 0.00 | 0.00 | 91 | 1013.8 |
| 20260507103504 | 67 | 39 | 4.0 | 10.0 | 0.00 | 0.00 | 0.00 | 91 | 1013.8 |
| 20260507103138 | 67 | 21 | 5.0 | 10.0 | 0.00 | 0.00 | 0.00 | 91 | 1013.9 |
| 20260507103011 | 67 | 14 | 5.0 | 10.0 | 0.00 | 0.00 | 0.00 | 91 | 1013.9 |
| 20260507102638 | 67 | 37 | 3.0 | 6.0 | 0.00 | 0.00 | 0.00 | 91 | 1013.9 |
| 20260507102504 | 67 | 52 | 3.0 | 8.0 | 0.00 | 0.00 | 0.00 | 91 | 1013.9 |
| 20260507102138 | 67 | 20 | 3.0 | 3.0 | 0.00 | 0.00 | 0.00 | 91 | 1013.9 |
| 20260507102010 | 67 | 30 | 4.0 | 7.0 | 0.00 | 0.00 | 0.00 | 91 | 1013.9 |
| 20260507101638 | 67 | 3 | 5.0 | 5.0 | 0.00 | 0.00 | 0.00 | 91 | 1013.9 |
| 20260507101138 | 68 | 23 | 6.0 | 6.0 | 0.00 | 0.00 | 0.00 | 91 | 1013.9 |
| 20260507100638 | 68 | 22 | 5.0 | 7.0 | 0.00 | 0.00 | 0.00 | 91 | 1014.0 |
| 20260507100505 | 68 | 16 | 5.0 | 8.0 | 0.00 | 0.00 | 0.00 | 91 | 1014.0 |
| 20260507100138 | 68 | 22 | 3.0 | 8.0 | 0.00 | 0.00 | 0.00 | 91 | 1014.1 |
| 20260507095638 | 68 | 20 | 2.0 | 3.0 | 0.00 | 0.00 | 0.00 | 92 | 1014.0 |
| 20260507095138 | 68 | 352 | 3.0 | 6.0 | 0.00 | 0.00 | 0.00 | 92 | 1014.1 |
| 20260507094638 | 68 | 8 | 3.0 | 3.0 | 0.00 | 0.00 | 0.00 | 92 | 1014.1 |
| 20260507094138 | 68 | 343 | 5.0 | 6.0 | 0.00 | 0.00 | 0.00 | 91 | 1014.2 |
| 20260507094010 | 68 | 352 | 3.0 | 8.0 | 0.00 | 0.00 | 0.00 | 91 | 1014.2 |
| 20260507093638 | 68 | 4 | 3.0 | 5.0 | 0.00 | 0.00 | 0.00 | 91 | 1014.2 |
| 20260507093138 | 68 | 27 | 1.0 | 3.0 | 0.00 | 0.00 | 0.00 | 91 | 1014.3 |
| 20260507093010 | 68 | 33 | 3.0 | 7.0 | 0.00 | 0.00 | 0.00 | 91 | 1014.4 |
| 20260507092638 | 68 | 19 | 3.0 | 5.0 | 0.00 | 0.00 | 0.00 | 91 | 1014.4 |
| 20260507092504 | 68 | 32 | 3.0 | 6.0 | 0.00 | 0.00 | 0.00 | 91 | 1014.4 |
| 20260507092138 | 68 | 4 | 3.0 | 5.0 | 0.00 | 0.00 | 0.00 | 91 | 1014.4 |
| 20260507091638 | 68 | 0 | 6.0 | 9.0 | 0.00 | 0.00 | 0.00 | 91 | 1014.4 |
| 20260507091504 | 68 | 24 | 7.0 | 9.0 | 0.00 | 0.00 | 0.00 | 92 | 1014.4 |
| 20260507091138 | 69 | 2 | 6.0 | 7.0 | 0.00 | 0.00 | 0.00 | 92 | 1014.4 |
| 20260507091010 | 69 | 2 | 6.0 | 10.0 | 0.00 | 0.00 | 0.00 | 92 | 1014.4 |
| 20260507090638 | 69 | 1 | 3.0 | 7.0 | 0.00 | 0.00 | 0.00 | 92 | 1014.4 |
| 20260507090504 | 69 | 20 | 4.0 | 9.0 | 0.00 | 0.00 | 0.00 | 92 | 1014.5 |
| 20260507090138 | 69 | 351 | 3.0 | 8.0 | 0.00 | 0.00 | 0.00 | 92 | 1014.5 |
| 20260507090004 | 69 | 337 | 3.0 | 8.0 | 0.00 | 0.00 | 0.00 | 92 | 1014.4 |
| 20260507085638 | 69 | 14 | 5.0 | 8.0 | 0.00 | 0.00 | 0.00 | 92 | 1014.3 |
| 20260507085138 | 69 | 22 | 6.0 | 9.0 | 0.00 | 0.00 | 0.00 | 92 | 1014.4 |
| 20260507085010 | 69 | 17 | 5.0 | 10.0 | 0.00 | 0.00 | 0.00 | 92 | 1014.4 |
| 20260507084638 | 69 | 17 | 3.0 | 5.0 | 0.00 | 0.00 | 0.00 | 92 | 1014.5 |
| 20260507084138 | 69 | 13 | 6.0 | 8.0 | 0.00 | 0.00 | 0.00 | 92 | 1014.5 |
| 20260507084010 | 69 | 8 | 5.0 | 8.0 | 0.00 | 0.00 | 0.00 | 92 | 1014.5 |
| 20260507083640 | 69 | 5 | 3.0 | 7.0 | 0.00 | 0.00 | 0.00 | 92 | 1014.5 |
| 20260507083140 | 69 | 21 | 3.0 | 6.0 | 0.00 | 0.00 | 0.00 | 92 | 1014.5 |
| 20260507082640 | 69 | 19 | 6.0 | 9.0 | 0.00 | 0.00 | 0.00 | 92 | 1014.5 |
| 20260507082504 | 69 | 24 | 5.0 | 9.0 | 0.00 | 0.00 | 0.00 | 92 | 1014.6 |
| 20260507082140 | 69 | 16 | 6.0 | 8.0 | 0.00 | 0.00 | 0.00 | 92 | 1014.5 |
| 20260507082011 | 69 | 16 | 5.0 | 8.0 | 0.00 | 0.00 | 0.00 | 92 | 1014.5 |
| 20260507081640 | 69 | 10 | 6.0 | 7.0 | 0.00 | 0.00 | 0.00 | 92 | 1014.6 |
| 20260507081140 | 69 | 351 | 5.0 | 3.0 | 0.00 | 0.00 | 0.00 | 92 | 1014.5 |
| 20260507081011 | 69 | 358 | 5.0 | 12.0 | 0.00 | 0.00 | 0.00 | 92 | 1014.5 |
| 20260507080640 | 69 | 8 | 3.0 | 5.0 | 0.00 | 0.00 | 0.00 | 92 | 1014.4 |
| 20260507080140 | 69 | 14 | 5.0 | 7.0 | 0.00 | 0.00 | 0.00 | 92 | 1014.4 |
| 20260507075640 | 69 | 41 | 6.0 | 7.0 | 0.00 | 0.00 | 0.00 | 92 | 1014.4 |
| 20260507075504 | 69 | 27 | 6.0 | 12.0 | 0.00 | 0.00 | 0.00 | 92 | 1014.4 |
| 20260507075138 | 69 | 16 | 8.0 | 12.0 | 0.00 | 0.00 | 0.00 | 92 | 1014.5 |
| 20260507075009 | 69 | 6 | 6.0 | 12.0 | 0.00 | 0.00 | 0.00 | 92 | 1014.5 |
| 20260507074637 | 69 | 357 | 5.0 | 5.0 | 0.00 | 0.00 | 0.00 | 92 | 1014.5 |
| 20260507074503 | 69 | 350 | 4.0 | 7.0 | 0.00 | 0.00 | 0.00 | 91 | 1014.4 |
| 20260507074137 | 69 | 23 | 5.0 | 6.0 | 0.00 | 0.00 | 0.00 | 92 | 1014.4 |
| 20260507073637 | 69 | 6 | 5.0 | 8.0 | 0.00 | 0.00 | 0.00 | 92 | 1014.4 |
| 20260507073137 | 69 | 355 | 3.0 | 6.0 | 0.00 | 0.00 | 0.00 | 91 | 1014.3 |
| 20260507072637 | 69 | 356 | 3.0 | 7.0 | 0.00 | 0.00 | 0.00 | 92 | 1014.3 |
| 20260507072503 | 69 | 344 | 4.0 | 9.0 | 0.00 | 0.00 | 0.00 | 92 | 1014.3 |
| 20260507072137 | 69 | 356 | 5.0 | 7.0 | 0.00 | 0.00 | 0.00 | 92 | 1014.3 |
| 20260507071637 | 69 | 345 | 5.0 | 5.0 | 0.00 | 0.00 | 0.00 | 92 | 1014.2 |
| 20260507071137 | 69 | 355 | 5.0 | 8.0 | 0.00 | 0.00 | 0.00 | 92 | 1014.2 |
| 20260507071009 | 69 | 349 | 3.0 | 9.0 | 0.00 | 0.00 | 0.00 | 91 | 1014.2 |
| 20260507070637 | 69 | 351 | 5.0 | 9.0 | 0.00 | 0.00 | 0.00 | 91 | 1014.0 |
| 20260507070503 | 69 | 1 | 4.0 | 9.0 | 0.00 | 0.00 | 0.00 | 91 | 1014.1 |
| 20260507070137 | 69 | 352 | 3.0 | 5.0 | 0.00 | 0.00 | 0.00 | 91 | 1014.0 |
| 20260507065637 | 69 | 358 | 5.0 | 7.0 | 0.00 | 0.00 | 0.00 | 91 | 1014.0 |
| 20260507065137 | 69 | 16 | 5.0 | 8.0 | 0.00 | 0.00 | 0.00 | 91 | 1013.9 |
| 20260507064637 | 69 | 0 | 6.0 | 8.0 | 0.00 | 0.00 | 0.00 | 91 | 1013.8 |
| 20260507064137 | 70 | 13 | 3.0 | 5.0 | 0.00 | 0.00 | 0.00 | 92 | 1013.7 |
| 20260507064010 | 70 | 9 | 2.0 | 5.0 | 0.00 | 0.00 | 0.00 | 92 | 1013.7 |
| 20260507063637 | 70 | 9 | 3.0 | 5.0 | 0.00 | 0.00 | 0.00 | 91 | 1013.7 |
| 20260507063502 | 70 | 344 | 3.0 | 6.0 | 0.00 | 0.00 | 0.00 | 91 | 1013.6 |
| 20260507063137 | 70 | 317 | 2.0 | 5.0 | 0.00 | 0.00 | 0.00 | 91 | 1013.6 |
| 20260507062637 | 70 | 9 | 5.0 | 5.0 | 0.00 | 0.00 | 0.00 | 91 | 1013.4 |
| 20260507062137 | 70 | 11 | 3.0 | 5.0 | 0.00 | 0.00 | 0.00 | 90 | 1013.5 |
| 20260507061637 | 70 | 10 | 5.0 | 7.0 | 0.00 | 0.00 | 0.00 | 90 | 1013.4 |
| 20260507061503 | 70 | 13 | 5.0 | 8.0 | 0.00 | 0.00 | 0.00 | 91 | 1013.4 |
| 20260507061137 | 70 | 14 | 2.0 | 7.0 | 0.00 | 0.00 | 0.00 | 91 | 1013.4 |
| 20260507060637 | 70 | 21 | 5.0 | 3.0 | 0.00 | 0.00 | 0.00 | 91 | 1013.4 |
| 20260507060137 | 70 | 30 | 3.0 | 5.0 | 0.00 | 0.00 | 0.00 | 91 | 1013.3 |
| 20260507060004 | 70 | 11 | 3.0 | 7.0 | 0.00 | 0.00 | 0.00 | 91 | 1013.3 |
| 20260507055637 | 70 | 349 | 5.0 | 5.0 | 0.00 | 0.00 | 0.00 | 91 | 1013.3 |
| 20260507055137 | 70 | 19 | 2.0 | 5.0 | 0.00 | 0.00 | 0.00 | 91 | 1013.3 |
| 20260507054637 | 70 | 349 | 5.0 | 6.0 | 0.00 | 0.00 | 0.00 | 91 | 1013.2 |
| 20260507054503 | 70 | 348 | 3.0 | 6.0 | 0.00 | 0.00 | 0.00 | 91 | 1013.2 |
| 20260507054137 | 70 | 14 | 5.0 | 6.0 | 0.00 | 0.00 | 0.00 | 91 | 1013.0 |
| 20260507053637 | 70 | 22 | 6.0 | 7.0 | 0.00 | 0.00 | 0.00 | 91 | 1013.0 |
| 20260507053137 | 70 | 14 | 5.0 | 7.0 | 0.00 | 0.00 | 0.00 | 91 | 1012.9 |
| 20260507052637 | 70 | 322 | 2.0 | 3.0 | 0.00 | 0.00 | 0.00 | 90 | 1012.8 |
| 20260507052137 | 70 | 349 | 2.0 | 3.0 | 0.00 | 0.00 | 0.00 | 90 | 1012.8 |
| 20260507052009 | 70 | 344 | 4.0 | 6.0 | 0.00 | 0.00 | 0.00 | 90 | 1012.7 |
| 20260507051637 | 70 | 4 | 2.0 | 3.0 | 0.00 | 0.00 | 0.00 | 90 | 1012.6 |
| 20260507051503 | 70 | 0 | 3.0 | 7.0 | 0.00 | 0.00 | 0.00 | 90 | 1012.5 |
| 20260507051137 | 70 | 7 | 3.0 | 3.0 | 0.00 | 0.00 | 0.00 | 90 | 1012.5 |
| 20260507051010 | 70 | 16 | 4.0 | 9.0 | 0.00 | 0.00 | 0.00 | 90 | 1012.5 |
| 20260507050637 | 70 | 33 | 6.0 | 9.0 | 0.00 | 0.00 | 0.00 | 90 | 1012.5 |
| 20260507050504 | 70 | 36 | 5.0 | 9.0 | 0.00 | 0.00 | 0.00 | 89 | 1012.5 |
| 20260507050137 | 70 | 7 | 6.0 | 9.0 | 0.00 | 0.00 | 0.00 | 89 | 1012.4 |
| 20260507045637 | 71 | 22 | 3.0 | 7.0 | 0.00 | 0.00 | 0.00 | 88 | 1012.3 |
| 20260507045503 | 71 | 27 | 4.0 | 7.0 | 0.00 | 0.00 | 0.00 | 88 | 1012.3 |
| 20260507045137 | 71 | 20 | 5.0 | 7.0 | 0.00 | 0.00 | 0.00 | 88 | 1012.3 |
| 20260507045009 | 71 | 13 | 4.0 | 8.0 | 0.00 | 0.00 | 0.00 | 88 | 1012.3 |
| 20260507044637 | 71 | 10 | 5.0 | 8.0 | 0.00 | 0.00 | 0.00 | 88 | 1012.3 |
| 20260507044137 | 71 | 6 | 2.0 | 3.0 | 0.00 | 0.00 | 0.00 | 87 | 1012.2 |
| 20260507043637 | 71 | 357 | 2.0 | 5.0 | 0.00 | 0.00 | 0.00 | 87 | 1012.2 |
| 20260507043137 | 72 | 9 | 5.0 | 10.0 | 0.00 | 0.00 | 0.00 | 87 | 1012.2 |
| 20260507042637 | 72 | 351 | 5.0 | 7.0 | 0.00 | 0.00 | 0.00 | 86 | 1012.1 |
| 20260507042503 | 72 | 350 | 4.0 | 7.0 | 0.00 | 0.00 | 0.00 | 86 | 1012.1 |
| 20260507042137 | 73 | 356 | 5.0 | 7.0 | 0.00 | 0.00 | 0.00 | 85 | 1012.1 |
| 20260507041637 | 73 | 14 | 2.0 | 3.0 | 0.00 | 0.00 | 0.00 | 85 | 1012.0 |
| 20260507041503 | 73 | 10 | 3.0 | 8.0 | 0.00 | 0.00 | 0.00 | 85 | 1012.0 |
| 20260507041137 | 73 | 355 | 6.0 | 7.0 | 0.00 | 0.00 | 0.00 | 84 | 1011.9 |
| 20260507040637 | 73 | 8 | 5.0 | 8.0 | 0.00 | 0.00 | 0.00 | 84 | 1011.8 |
| 20260507040137 | 73 | 345 | 2.0 | 8.0 | 0.00 | 0.00 | 0.00 | 84 | 1011.8 |
| 20260507035637 | 74 | 344 | 6.0 | 7.0 | 0.00 | 0.00 | 0.00 | 83 | 1011.7 |
| 20260507035137 | 74 | 354 | 6.0 | 8.0 | 0.00 | 0.00 | 0.00 | 82 | 1011.6 |
| 20260507035010 | 74 | 353 | 4.0 | 8.0 | 0.00 | 0.00 | 0.00 | 81 | 1011.6 |
| 20260507034637 | 75 | 4 | 5.0 | 7.0 | 0.00 | 0.00 | 0.00 | 80 | 1011.6 |
| 20260507034137 | 75 | 1 | 6.0 | 8.0 | 0.00 | 0.00 | 0.00 | 80 | 1011.6 |
| 20260507033637 | 75 | 341 | 5.0 | 8.0 | 0.00 | 0.00 | 0.00 | 81 | 1011.6 |
| 20260507033503 | 75 | 356 | 5.0 | 6.0 | 0.00 | 0.00 | 0.00 | 81 | 1011.6 |
| 20260507033137 | 75 | 8 | 3.0 | 3.0 | 0.00 | 0.00 | 0.00 | 80 | 1011.5 |
| 20260507032637 | 75 | 341 | 5.0 | 6.0 | 0.00 | 0.00 | 0.00 | 80 | 1011.5 |
| 20260507032503 | 76 | 349 | 6.0 | 8.0 | 0.00 | 0.00 | 0.00 | 80 | 1011.5 |
| 20260507032137 | 76 | 10 | 3.0 | 7.0 | 0.00 | 0.00 | 0.00 | 79 | 1011.5 |
| 20260507032009 | 76 | 346 | 5.0 | 8.0 | 0.00 | 0.00 | 0.00 | 79 | 1011.5 |
| 20260507031637 | 76 | 316 | 7.0 | 8.0 | 0.00 | 0.00 | 0.00 | 79 | 1011.4 |
| 20260507031502 | 76 | 313 | 6.0 | 10.0 | 0.00 | 0.00 | 0.00 | 78 | 1011.4 |
| 20260507031136 | 76 | 10 | 5.0 | 9.0 | 0.00 | 0.00 | 0.00 | 79 | 1011.4 |
| 20260507031009 | 76 | 2 | 5.0 | 9.0 | 0.00 | 0.00 | 0.00 | 79 | 1011.4 |
| 20260507030638 | 76 | 357 | 3.0 | 5.0 | 0.00 | 0.00 | 0.00 | 79 | 1011.4 |
| 20260507030138 | 76 | 0 | 5.0 | 8.0 | 0.00 | 0.00 | 0.00 | 77 | 1011.3 |
| 20260507025638 | 77 | 349 | 6.0 | 9.0 | 0.00 | 0.00 | 0.00 | 77 | 1011.3 |
| 20260507025503 | 77 | 0 | 5.0 | 9.0 | 0.00 | 0.00 | 0.00 | 77 | 1011.3 |
| 20260507025138 | 77 | 353 | 6.0 | 9.0 | 0.00 | 0.00 | 0.00 | 76 | 1011.3 |
| 20260507024638 | 77 | 314 | 6.0 | 9.0 | 0.00 | 0.00 | 0.00 | 77 | 1011.3 |
| 20260507024503 | 77 | 307 | 5.0 | 9.0 | 0.00 | 0.00 | 0.00 | 76 | 1011.2 |
| 20260507024138 | 77 | 15 | 5.0 | 8.0 | 0.00 | 0.00 | 0.00 | 77 | 1011.2 |
| 20260507024010 | 77 | 356 | 5.0 | 8.0 | 0.00 | 0.00 | 0.00 | 76 | 1011.2 |
| 20260507023638 | 78 | 4 | 6.0 | 7.0 | 0.00 | 0.00 | 0.00 | 76 | 1011.2 |
| 20260507023138 | 78 | 352 | 3.0 | 7.0 | 0.00 | 0.00 | 0.00 | 74 | 1011.3 |
| 20260507023009 | 78 | 349 | 5.0 | 8.0 | 0.00 | 0.00 | 0.00 | 74 | 1011.3 |
| 20260507022638 | 79 | 342 | 6.0 | 7.0 | 0.00 | 0.00 | 0.00 | 73 | 1011.3 |
| 20260507022138 | 79 | 317 | 6.0 | 8.0 | 0.00 | 0.00 | 0.00 | 73 | 1011.2 |
| 20260507021638 | 80 | 303 | 5.0 | 7.0 | 0.00 | 0.00 | 0.00 | 72 | 1011.2 |
| 20260507021503 | 80 | 314 | 6.0 | 8.0 | 0.00 | 0.00 | 0.00 | 72 | 1011.3 |
| 20260507021138 | 79 | 305 | 3.0 | 6.0 | 0.00 | 0.00 | 0.00 | 74 | 1011.3 |
| 20260507020638 | 79 | 305 | 6.0 | 9.0 | 0.00 | 0.00 | 0.00 | 74 | 1011.4 |
| 20260507020138 | 79 | 357 | 3.0 | 5.0 | 0.00 | 0.00 | 0.00 | 72 | 1011.3 |
| 20260507020002 | 79 | 354 | 5.0 | 9.0 | 0.00 | 0.00 | 0.00 | 71 | 1011.4 |
| 20260507015638 | 80 | 337 | 6.0 | 8.0 | 0.00 | 0.00 | 0.00 | 73 | 1011.5 |
| 20260507015138 | 79 | 289 | 5.0 | 7.0 | 0.00 | 0.00 | 0.00 | 73 | 1011.4 |
| 20260507015010 | 79 | 302 | 6.0 | 10.0 | 0.00 | 0.00 | 0.00 | 73 | 1011.4 |
| 20260507014638 | 79 | 312 | 6.0 | 10.0 | 0.00 | 0.00 | 0.00 | 74 | 1011.4 |
| 20260507014503 | 79 | 313 | 5.0 | 10.0 | 0.00 | 0.00 | 0.00 | 74 | 1011.4 |
| 20260507014138 | 79 | 312 | 6.0 | 9.0 | 0.00 | 0.00 | 0.00 | 75 | 1011.4 |
| 20260507014009 | 79 | 316 | 6.0 | 9.0 | 0.00 | 0.00 | 0.00 | 75 | 1011.4 |
| 20260507013638 | 78 | 307 | 3.0 | 7.0 | 0.00 | 0.00 | 0.00 | 74 | 1011.4 |
| 20260507013503 | 79 | 322 | 5.0 | 10.0 | 0.00 | 0.00 | 0.00 | 74 | 1011.4 |
| 20260507013138 | 79 | 350 | 6.0 | 7.0 | 0.00 | 0.00 | 0.00 | 72 | 1011.4 |
| 20260507013009 | 79 | 338 | 6.0 | 12.0 | 0.00 | 0.00 | 0.00 | 72 | 1011.4 |
| 20260507012638 | 79 | 322 | 3.0 | 3.0 | 0.00 | 0.00 | 0.00 | 76 | 1011.3 |
| 20260507012503 | 79 | 324 | 3.0 | 12.0 | 0.00 | 0.00 | 0.00 | 75 | 1011.3 |
| 20260507012138 | 79 | 326 | 6.0 | 12.0 | 0.00 | 0.00 | 0.00 | 74 | 1011.4 |
| 20260507011638 | 79 | 327 | 6.0 | 7.0 | 0.00 | 0.00 | 0.00 | 72 | 1011.4 |
| 20260507011138 | 80 | 316 | 6.0 | 9.0 | 0.00 | 0.00 | 0.00 | 73 | 1011.5 |
| 20260507010638 | 79 | 295 | 6.0 | 8.0 | 0.00 | 0.00 | 0.00 | 73 | 1011.5 |
| 20260507010503 | 79 | 300 | 5.0 | 10.0 | 0.00 | 0.00 | 0.00 | 73 | 1011.5 |
| 20260507010138 | 80 | 343 | 5.0 | 7.0 | 0.00 | 0.00 | 0.00 | 73 | 1011.5 |
| 20260507005638 | 80 | 344 | 7.0 | 10.0 | 0.00 | 0.00 | 0.00 | 72 | 1011.6 |
| 20260507005503 | 80 | 346 | 6.0 | 9.0 | 0.00 | 0.00 | 0.00 | 72 | 1011.6 |
| 20260507005138 | 80 | 354 | 6.0 | 9.0 | 0.00 | 0.00 | 0.00 | 72 | 1011.6 |
| 20260507005009 | 80 | 334 | 6.0 | 10.0 | 0.00 | 0.00 | 0.00 | 73 | 1011.6 |
| 20260507004638 | 80 | 318 | 5.0 | 5.0 | 0.00 | 0.00 | 0.00 | 73 | 1011.6 |
| 20260507004138 | 80 | 307 | 6.0 | 8.0 | 0.00 | 0.00 | 0.00 | 74 | 1011.6 |
| 20260507004009 | 80 | 293 | 4.0 | 9.0 | 0.00 | 0.00 | 0.00 | 74 | 1011.6 |
| 20260507003638 | 80 | 307 | 6.0 | 7.0 | 0.00 | 0.00 | 0.00 | 73 | 1011.6 |
| 20260507003503 | 80 | 322 | 5.0 | 12.0 | 0.00 | 0.00 | 0.00 | 73 | 1011.6 |
| 20260507003138 | 80 | 311 | 5.0 | 8.0 | 0.00 | 0.00 | 0.00 | 74 | 1011.7 |
| 20260507002638 | 80 | 306 | 6.0 | 8.0 | 0.00 | 0.00 | 0.00 | 72 | 1011.7 |
| 20260507002503 | 80 | 331 | 6.0 | 12.0 | 0.00 | 0.00 | 0.00 | 73 | 1011.7 |
| 20260507002138 | 80 | 316 | 6.0 | 12.0 | 0.00 | 0.00 | 0.00 | 74 | 1011.8 |
| 20260507002009 | 80 | 329 | 6.0 | 9.0 | 0.00 | 0.00 | 0.00 | 73 | 1011.8 |
| 20260507001638 | 81 | 304 | 6.0 | 7.0 | 0.00 | 0.00 | 0.00 | 72 | 1011.8 |
| 20260507001138 | 81 | 294 | 6.0 | 8.0 | 0.00 | 0.00 | 0.00 | 72 | 1011.8 |
| 20260507000638 | 81 | 340 | 6.0 | 8.0 | 0.00 | 0.00 | 0.00 | 72 | 1011.8 |
| 20260507000138 | 82 | 314 | 6.0 | 12.0 | 0.00 | 0.00 | 0.00 | 72 | 1011.8 |
| 20260507000003 | 82 | 309 | 6.0 | 12.0 | 0.00 | 0.00 | 0.00 | 71 | 1011.9 |
| 20260506235638 | 82 | 341 | 6.0 | 10.0 | 0.00 | 0.00 | 0.00 | 70 | 1011.9 |
| 20260506235503 | 82 | 329 | 6.0 | 10.0 | 0.00 | 0.00 | 0.00 | 71 | 1011.9 |
| 20260506235138 | 83 | 316 | 7.0 | 10.0 | 0.00 | 0.00 | 0.00 | 70 | 1011.9 |
| 20260506234638 | 83 | 357 | 7.0 | 9.0 | 0.00 | 0.00 | 0.00 | 71 | 1011.9 |
| 20260506234138 | 83 | 310 | 7.0 | 8.0 | 0.00 | 0.00 | 0.00 | 71 | 1011.8 |
| 20260506233638 | 83 | 340 | 6.0 | 9.0 | 0.00 | 0.00 | 0.00 | 70 | 1011.8 |
| 20260506233138 | 83 | 316 | 5.0 | 6.0 | 0.00 | 0.00 | 0.00 | 70 | 1011.9 |
| 20260506232638 | 83 | 331 | 7.0 | 8.0 | 0.00 | 0.00 | 0.00 | 68 | 1011.9 |
| 20260506232138 | 83 | 332 | 3.0 | 9.0 | 0.00 | 0.00 | 0.00 | 70 | 1012.0 |
| 20260506232010 | 83 | 283 | 5.0 | 13.0 | 0.00 | 0.00 | 0.00 | 69 | 1012.0 |
| 20260506231638 | 82 | 320 | 6.0 | 9.0 | 0.00 | 0.00 | 0.00 | 71 | 1012.1 |
| 20260506231503 | 82 | 344 | 5.0 | 10.0 | 0.00 | 0.00 | 0.00 | 71 | 1012.0 |
| 20260506231138 | 82 | 291 | 6.0 | 9.0 | 0.00 | 0.00 | 0.00 | 71 | 1012.1 |
| 20260506230638 | 82 | 340 | 6.0 | 6.0 | 0.00 | 0.00 | 0.00 | 71 | 1012.2 |
| 20260506230138 | 82 | 0 | 7.0 | 9.0 | 0.00 | 0.00 | 0.00 | 72 | 1012.2 |
| 20260506225638 | 82 | 322 | 7.0 | 9.0 | 0.00 | 0.00 | 0.00 | 71 | 1012.3 |
| 20260506225138 | 82 | 320 | 6.0 | 8.0 | 0.00 | 0.00 | 0.00 | 72 | 1012.4 |
| 20260506225009 | 82 | 326 | 6.0 | 10.0 | 0.00 | 0.00 | 0.00 | 73 | 1012.4 |
| 20260506224639 | 81 | 356 | 6.0 | 8.0 | 0.00 | 0.00 | 0.00 | 71 | 1012.4 |
| 20260506224504 | 81 | 3 | 6.0 | 10.0 | 0.00 | 0.00 | 0.00 | 71 | 1012.4 |
| 20260506224139 | 81 | 326 | 3.0 | 7.0 | 0.00 | 0.00 | 0.00 | 74 | 1012.4 |
| 20260506223638 | 81 | 314 | 5.0 | 7.0 | 0.00 | 0.00 | 0.00 | 74 | 1012.5 |
| 20260506223504 | 81 | 297 | 5.0 | 9.0 | 0.00 | 0.00 | 0.00 | 73 | 1012.5 |
| 20260506223138 | 81 | 300 | 6.0 | 9.0 | 0.00 | 0.00 | 0.00 | 73 | 1012.5 |
| 20260506222637 | 81 | 348 | 6.0 | 10.0 | 0.00 | 0.00 | 0.00 | 73 | 1012.5 |
| 20260506222137 | 80 | 335 | 5.0 | 7.0 | 0.00 | 0.00 | 0.00 | 73 | 1012.5 |
| 20260506221637 | 80 | 316 | 7.0 | 10.0 | 0.00 | 0.00 | 0.00 | 73 | 1012.6 |
| 20260506221504 | 80 | 306 | 6.0 | 10.0 | 0.00 | 0.00 | 0.00 | 72 | 1012.6 |
| 20260506221137 | 81 | 345 | 8.0 | 9.0 | 0.00 | 0.00 | 0.00 | 71 | 1012.6 |
| 20260506221010 | 81 | 355 | 7.0 | 12.0 | 0.00 | 0.00 | 0.00 | 71 | 1012.6 |
| 20260506220637 | 80 | 314 | 5.0 | 7.0 | 0.00 | 0.00 | 0.00 | 74 | 1012.7 |
| 20260506220504 | 80 | 327 | 3.0 | 7.0 | 0.00 | 0.00 | 0.00 | 72 | 1012.7 |
| 20260506220137 | 80 | 291 | 3.0 | 6.0 | 0.00 | 0.00 | 0.00 | 74 | 1012.7 |
| 20260506215637 | 80 | 335 | 7.0 | 9.0 | 0.00 | 0.00 | 0.00 | 73 | 1012.8 |
| 20260506215503 | 80 | 304 | 7.0 | 10.0 | 0.00 | 0.00 | 0.00 | 73 | 1012.8 |
| 20260506215137 | 80 | 330 | 5.0 | 10.0 | 0.00 | 0.00 | 0.00 | 75 | 1012.9 |
| 20260506215010 | 80 | 351 | 6.0 | 10.0 | 0.00 | 0.00 | 0.00 | 74 | 1012.8 |
| 20260506214637 | 80 | 306 | 3.0 | 10.0 | 0.00 | 0.00 | 0.00 | 74 | 1012.9 |
| 20260506214503 | 80 | 270 | 5.0 | 7.0 | 0.00 | 0.00 | 0.00 | 72 | 1013.0 |
| 20260506214137 | 80 | 306 | 3.0 | 3.0 | 0.00 | 0.00 | 0.00 | 72 | 1013.1 |
| 20260506214009 | 80 | 305 | 5.0 | 8.0 | 0.00 | 0.00 | 0.00 | 72 | 1013.1 |
| 20260506213637 | 80 | 301 | 5.0 | 8.0 | 0.00 | 0.00 | 0.00 | 73 | 1013.1 |
| 20260506213137 | 80 | 290 | 5.0 | 6.0 | 0.00 | 0.00 | 0.00 | 73 | 1013.2 |
| 20260506212638 | 80 | 4 | 3.0 | 6.0 | 0.00 | 0.00 | 0.00 | 72 | 1013.2 |
| 20260506212137 | 80 | 305 | 5.0 | 6.0 | 0.00 | 0.00 | 0.00 | 72 | 1013.3 |
| 20260506211637 | 80 | 308 | 5.0 | 7.0 | 0.00 | 0.00 | 0.00 | 71 | 1013.2 |
| 20260506211137 | 80 | 317 | 5.0 | 7.0 | 0.00 | 0.00 | 0.00 | 74 | 1013.3 |
| 20260506210638 | 80 | 294 | 3.0 | 5.0 | 0.00 | 0.00 | 0.00 | 74 | 1013.3 |
| 20260506210137 | 81 | 315 | 6.0 | 7.0 | 0.00 | 0.00 | 0.00 | 72 | 1013.4 |
| 20260506205637 | 81 | 301 | 3.0 | 6.0 | 0.00 | 0.00 | 0.00 | 72 | 1013.4 |
| 20260506205137 | 81 | 279 | 5.0 | 6.0 | 0.00 | 0.00 | 0.00 | 72 | 1013.2 |
| 20260506204637 | 81 | 272 | 6.0 | 7.0 | 0.00 | 0.00 | 0.00 | 71 | 1013.2 |
| 20260506204137 | 81 | 314 | 5.0 | 7.0 | 0.00 | 0.00 | 0.00 | 70 | 1013.3 |
| 20260506203637 | 81 | 306 | 5.0 | 6.0 | 0.00 | 0.00 | 0.00 | 71 | 1013.3 |
| 20260506203503 | 81 | 320 | 3.0 | 8.0 | 0.00 | 0.00 | 0.00 | 73 | 1013.3 |
| 20260506203137 | 81 | 325 | 6.0 | 8.0 | 0.00 | 0.00 | 0.00 | 72 | 1013.4 |
| 20260506203010 | 81 | 301 | 6.0 | 9.0 | 0.00 | 0.00 | 0.00 | 72 | 1013.4 |
| 20260506202637 | 81 | 332 | 3.0 | 5.0 | 0.00 | 0.00 | 0.00 | 71 | 1013.4 |
| 20260506202503 | 81 | 11 | 6.0 | 8.0 | 0.00 | 0.00 | 0.00 | 70 | 1013.4 |
| 20260506202137 | 81 | 332 | 5.0 | 7.0 | 0.00 | 0.00 | 0.00 | 72 | 1013.3 |
| 20260506202010 | 81 | 314 | 5.0 | 9.0 | 0.00 | 0.00 | 0.00 | 71 | 1013.3 |
| 20260506201637 | 81 | 289 | 7.0 | 8.0 | 0.00 | 0.00 | 0.00 | 71 | 1013.3 |
| 20260506201137 | 81 | 336 | 6.0 | 8.0 | 0.00 | 0.00 | 0.00 | 72 | 1013.2 |
| 20260506201010 | 81 | 337 | 5.0 | 9.0 | 0.00 | 0.00 | 0.00 | 72 | 1013.2 |
| 20260506200637 | 81 | 359 | 5.0 | 9.0 | 0.00 | 0.00 | 0.00 | 72 | 1013.3 |
| 20260506200137 | 80 | 0 | 3.0 | 9.0 | 0.00 | 0.00 | 0.00 | 73 | 1013.4 |
| 20260506200004 | 80 | 324 | 4.0 | 7.0 | 0.00 | 0.00 | 0.00 | 73 | 1013.4 |
| 20260506195637 | 80 | 299 | 5.0 | 5.0 | 0.00 | 0.00 | 0.00 | 74 | 1013.4 |
| 20260506195137 | 80 | 316 | 3.0 | 7.0 | 0.00 | 0.00 | 0.00 | 72 | 1013.4 |
| 20260506194637 | 80 | 321 | 3.0 | 3.0 | 0.00 | 0.00 | 0.00 | 73 | 1013.4 |
| 20260506194137 | 79 | 338 | 2.0 | 3.0 | 0.00 | 0.00 | 0.00 | 73 | 1013.4 |
| 20260506193637 | 79 | 331 | 2.0 | 2.0 | 0.00 | 0.00 | 0.00 | 73 | 1013.5 |
| 20260506193137 | 79 | 274 | 3.0 | 5.0 | 0.00 | 0.00 | 0.00 | 75 | 1013.4 |
| 20260506192637 | 78 | 281 | 5.0 | 7.0 | 0.00 | 0.00 | 0.00 | 75 | 1013.4 |
| 20260506192137 | 78 | 314 | 3.0 | 3.0 | 0.00 | 0.00 | 0.00 | 75 | 1013.3 |
| 20260506191637 | 78 | 300 | 5.0 | 7.0 | 0.00 | 0.00 | 0.00 | 76 | 1013.3 |
| 20260506191503 | 78 | 306 | 5.0 | 8.0 | 0.00 | 0.00 | 0.00 | 76 | 1013.4 |
| 20260506191137 | 78 | 282 | 6.0 | 7.0 | 0.00 | 0.00 | 0.00 | 76 | 1013.3 |
| 20260506191009 | 78 | 287 | 2.0 | 7.0 | 0.00 | 0.00 | 0.00 | 76 | 1013.3 |
| 20260506190637 | 78 | 324 | 3.0 | 3.0 | 0.00 | 0.00 | 0.00 | 75 | 1013.3 |
| 20260506190137 | 77 | 331 | 2.0 | 5.0 | 0.00 | 0.00 | 0.00 | 75 | 1013.3 |
| 20260506190005 | 77 | 337 | 4.0 | 6.0 | 0.00 | 0.00 | 0.00 | 75 | 1013.3 |
| 20260506185637 | 77 | 318 | 3.0 | 6.0 | 0.00 | 0.00 | 0.00 | 77 | 1013.3 |
| 20260506185503 | 77 | 317 | 3.0 | 5.0 | 0.00 | 0.00 | 0.00 | 77 | 1013.2 |
| 20260506185137 | 76 | 333 | 3.0 | 3.0 | 0.00 | 0.00 | 0.00 | 77 | 1013.2 |
| 20260506184637 | 76 | 320 | 3.0 | 3.0 | 0.00 | 0.00 | 0.00 | 78 | 1013.2 |
| 20260506184137 | 76 | 289 | 3.0 | 3.0 | 0.00 | 0.00 | 0.00 | 77 | 1013.2 |
| 20260506183637 | 76 | 294 | 2.0 | 3.0 | 0.00 | 0.00 | 0.00 | 78 | 1013.2 |
| 20260506183139 | 75 | 28 | 1.0 | 2.0 | 0.00 | 0.00 | 0.00 | 77 | 1013.2 |
| 20260506183010 | 75 | 28 | 1.0 | 3.0 | 0.00 | 0.00 | 0.00 | 77 | 1013.1 |
| 20260506182639 | 75 | 9 | 3.0 | 3.0 | 0.00 | 0.00 | 0.00 | 78 | 1013.2 |
| 20260506182139 | 74 | 30 | 1.0 | 2.0 | 0.00 | 0.00 | 0.00 | 79 | 1013.1 |
| 20260506182010 | 74 | 22 | 1.0 | 3.0 | 0.00 | 0.00 | 0.00 | 80 | 1013.1 |
| 20260506181639 | 74 | 67 | 1.0 | 2.0 | 0.00 | 0.00 | 0.00 | 81 | 1013.1 |
| 20260506181504 | 74 | 87 | 2.0 | 5.0 | 0.00 | 0.00 | 0.00 | 81 | 1013.1 |
| 20260506181139 | 73 | 357 | 2.0 | 5.0 | 0.00 | 0.00 | 0.00 | 82 | 1013.0 |
| 20260506180639 | 72 | 354 | 2.0 | 1.0 | 0.00 | 0.00 | 0.00 | 83 | 1013.0 |
| 20260506180138 | 71 | 14 | 3.0 | 3.0 | 0.00 | 0.00 | 0.00 | 84 | 1013.0 |
| 20260506175638 | 70 | 348 | 2.0 | 3.0 | 0.00 | 0.00 | 0.00 | 86 | 1013.0 |
| 20260506175139 | 70 | 344 | 3.0 | 3.0 | 0.00 | 0.00 | 0.00 | 88 | 1013.0 |
| 20260506175010 | 69 | 343 | 2.0 | 3.0 | 0.00 | 0.00 | 0.00 | 88 | 1013.0 |
| 20260506174638 | 69 | 302 | 2.0 | 3.0 | 0.00 | 0.00 | 0.00 | 88 | 1013.0 |
| 20260506174138 | 68 | 294 | 2.0 | 3.0 | 0.00 | 0.00 | 0.00 | 89 | 1012.9 |
| 20260506174009 | 68 | 315 | 2.0 | 3.0 | 0.00 | 0.00 | 0.00 | 88 | 1012.8 |
| 20260506173638 | 67 | 310 | 3.0 | 3.0 | 0.00 | 0.00 | 0.00 | 87 | 1012.8 |
| 20260506173138 | 67 | 287 | 1.0 | 3.0 | 0.00 | 0.00 | 0.00 | 87 | 1012.7 |
| 20260506172638 | 66 | 287 | 2.0 | 3.0 | 0.00 | 0.00 | 0.00 | 89 | 1012.6 |